Startpagina
METAR-TAF:

METAR-TAF

Vliegvelden :

Curaçao International Airport

Curaçao, Nederlandse Antillen

breedte: 12-12N, lengte: 068-58W, hoogte: 9 m

Actueel weer

Dit bericht is 10 minuten geleden gemaakt, om 15:00 UTC
Wind 13 kt uit het oosten, variërend tussen het oosten en het zuidoosten
Temperatuur 30°C
Vochtigheid 66%
Druk 1015 hPa
Zicht 10 km of meer
Verspreide wolken op 2200 ft

METAR: TNCC 191500Z 10013KT 080V140 9999 SCT022 30/23 Q1015 NOSIG

Tijdstip: 11:10 (15:10 UTC)

Verwachting

Dit bericht is 5 uur en het 35 minuten geleden gemaakt, om 09:35 UTC
Verwachting geldig van 19 om 12 UTC tot 20 om 12 UTC
Wind 16 kt uit het oosten
Zicht 10 km of meer
Verspreide wolken op 2000 ft
Kans 30% :
Tijdelijke
van 19 om 12 UTC tot 19 om 16 UTC
Gebroken wolken op 1500 ft

TAF: TNCC 190935Z 1912/2012 10016KT 9999 SCT020 PROB30 TEMPO 1912/1916 BKN015

Waarnemingen en weersverwachtingen van meer dan 4000 vliegvelden (METAR en TAF).

De beschikbare stations zijn de gele en rode punten op de kaart.

Ga met uw muis naar het station om de naam te zien.

Klik dan om waarnemingen en weersverwachtingen te zien.

kaart wijzigen: klik op de groene knoppen met een zwart kruis om in te zoomen, op de groene knop met een streepje om uit te zoomen of op de groene pijlen voor aangrenzende kaarten.


METAR-TAF: